createdAt,value
2023-06-16T00:01:32.900Z,2.27
2023-06-16T00:06:34.814Z,2.30
2023-06-16T00:11:36.410Z,2.03
2023-06-16T00:16:38.137Z,2.37
2023-06-16T00:21:42.507Z,2.20
2023-06-16T00:26:44.161Z,2.57
2023-06-16T00:31:46.582Z,2.43
2023-06-16T00:36:48.202Z,2.30
2023-06-16T00:41:51.677Z,1.97
2023-06-16T00:46:53.448Z,2.50
2023-06-16T00:51:55.281Z,2.33
2023-06-16T00:56:57.200Z,2.30
2023-06-16T01:01:58.780Z,2.33
2023-06-16T01:07:10.797Z,2.30
2023-06-16T01:12:21.542Z,2.73
2023-06-16T01:17:24.308Z,2.57
2023-06-16T01:22:44.391Z,2.17
2023-06-16T01:27:48.928Z,2.63
2023-06-16T01:32:53.745Z,2.50
2023-06-16T01:37:56.675Z,2.40
2023-06-16T01:42:58.621Z,2.27
2023-06-16T01:48:00.473Z,2.27
2023-06-16T01:53:02.543Z,2.43
2023-06-16T01:58:07.389Z,2.57
2023-06-16T02:03:26.352Z,2.30
2023-06-16T02:08:28.244Z,2.20
2023-06-16T02:13:30.547Z,2.10
2023-06-16T02:18:33.551Z,2.37
2023-06-16T02:23:35.358Z,2.50
2023-06-16T02:28:36.995Z,2.27
2023-06-16T02:33:38.587Z,2.30
2023-06-16T02:38:40.652Z,2.20
2023-06-16T02:43:42.371Z,2.63
2023-06-16T02:48:44.129Z,2.20
2023-06-16T02:53:48.949Z,2.53
2023-06-16T02:58:52.015Z,2.37
2023-06-16T03:03:55.297Z,2.27
2023-06-16T03:09:35.342Z,2.60
2023-06-16T03:14:39.944Z,2.40
2023-06-16T03:19:51.257Z,2.30
2023-06-16T03:25:03.997Z,2.57
2023-06-16T03:30:10.327Z,2.00
2023-06-16T03:35:28.174Z,2.03
2023-06-16T03:40:32.479Z,2.30
2023-06-16T03:45:34.203Z,2.10
2023-06-16T03:50:36.543Z,2.10
2023-06-16T03:55:38.401Z,1.93
2023-06-16T04:00:40.252Z,2.40
2023-06-16T04:05:43.215Z,2.50
2023-06-16T04:10:44.958Z,2.20
2023-06-16T04:15:47.503Z,2.40
2023-06-16T04:20:52.142Z,2.30
2023-06-16T04:25:54.678Z,2.73
2023-06-16T04:30:57.726Z,2.10
2023-06-16T04:36:02.080Z,2.40
2023-06-16T04:41:04.772Z,1.93
2023-06-16T04:46:06.574Z,2.17
2023-06-16T04:51:09.540Z,1.90
2023-06-16T04:56:11.232Z,2.30
2023-06-16T05:01:14.168Z,2.20
2023-06-16T05:06:16.103Z,2.50
2023-06-16T05:11:17.802Z,2.75
2023-06-16T05:16:19.392Z,2.70
2023-06-16T05:21:26.973Z,2.90
2023-06-16T05:26:31.527Z,2.80
2023-06-16T05:31:34.665Z,2.40
2023-06-16T05:36:37.105Z,2.33
2023-06-16T05:41:43.091Z,2.37
2023-06-16T05:46:45.642Z,2.33
2023-06-16T05:51:53.002Z,2.90
2023-06-16T05:56:55.962Z,2.83
2023-06-16T06:01:58.287Z,2.80
2023-06-16T06:07:00.496Z,2.65
2023-06-16T06:12:04.019Z,2.40
2023-06-16T06:17:07.306Z,2.55
2023-06-16T06:22:09.132Z,2.60
2023-06-16T06:27:13.540Z,2.25
2023-06-16T06:32:15.218Z,2.42
2023-06-16T06:37:19.962Z,2.28
2023-06-16T06:42:23.872Z,2.35
2023-06-16T06:47:27.806Z,2.25
2023-06-16T06:52:34.632Z,2.10
2023-06-16T06:57:36.305Z,2.20
2023-06-16T07:02:38.127Z,2.22
2023-06-16T07:07:39.976Z,1.92
2023-06-16T07:12:41.667Z,2.10
2023-06-16T07:17:43.309Z,2.30
2023-06-16T07:22:46.455Z,2.30
2023-06-16T07:27:48.213Z,2.60
2023-06-16T07:32:51.101Z,2.17
2023-06-16T07:37:53.346Z,2.47
2023-06-16T07:42:54.995Z,2.35
2023-06-16T07:47:56.777Z,2.50
2023-06-16T07:52:58.495Z,2.30
2023-06-16T07:58:00.048Z,2.58
2023-06-16T08:03:02.852Z,1.98
2023-06-16T08:08:05.950Z,2.13
2023-06-16T08:13:07.600Z,1.90
2023-06-16T08:18:09.305Z,1.90
2023-06-16T08:23:10.892Z,2.20
2023-06-16T08:28:12.562Z,2.03
2023-06-16T08:33:14.595Z,2.10
2023-06-16T08:38:16.333Z,1.92
2023-06-16T08:43:18.909Z,2.17
2023-06-16T08:48:20.573Z,1.90
2023-06-16T08:53:23.756Z,1.85
2023-06-16T08:58:26.472Z,2.08
2023-06-16T09:03:30.415Z,1.67
2023-06-16T09:08:32.528Z,1.80
2023-06-16T09:13:34.383Z,1.77
2023-06-16T09:18:42.414Z,2.13
2023-06-16T09:23:44.470Z,1.90
2023-06-16T09:28:46.777Z,1.95
2023-06-16T09:33:48.415Z,2.00
2023-06-16T09:38:51.341Z,1.80
2023-06-16T09:43:53.055Z,1.90
2023-06-16T09:48:54.803Z,1.65
2023-06-16T09:53:56.578Z,1.90
2023-06-16T09:58:58.390Z,1.88
2023-06-16T10:04:00.624Z,1.90
2023-06-16T10:09:02.970Z,1.90
2023-06-16T10:14:05.748Z,1.88
2023-06-16T10:19:08.889Z,2.20
2023-06-16T10:24:11.232Z,1.88
2023-06-16T10:29:17.395Z,1.92
2023-06-16T10:34:20.663Z,2.05
2023-06-16T10:39:22.229Z,2.00
2023-06-16T10:44:32.805Z,2.13
2023-06-16T10:49:45.044Z,2.50
2023-06-16T10:54:49.857Z,2.00
2023-06-16T11:00:13.454Z,1.92
2023-06-16T11:05:16.633Z,2.00
2023-06-16T11:10:22.031Z,1.90
2023-06-16T11:15:24.455Z,2.15
2023-06-16T11:20:27.252Z,2.38
2023-06-16T11:25:29.793Z,1.70
2023-06-16T11:30:31.984Z,1.60
2023-06-16T11:35:34.161Z,2.00
2023-06-16T11:40:36.542Z,2.00
2023-06-16T11:45:39.119Z,2.10
2023-06-16T11:50:41.327Z,2.00
2023-06-16T11:55:49.625Z,2.05
2023-06-16T12:00:51.974Z,2.10
2023-06-16T12:05:54.303Z,1.90
2023-06-16T12:10:56.168Z,2.10
2023-06-16T12:15:58.648Z,1.95
2023-06-16T12:21:17.170Z,1.95
2023-06-16T12:26:41.231Z,1.77
2023-06-16T12:32:01.497Z,1.90
2023-06-16T12:37:07.941Z,2.00
2023-06-16T12:42:13.110Z,1.90
2023-06-16T12:47:16.607Z,1.90
2023-06-16T12:52:20.517Z,1.60
2023-06-16T12:57:23.847Z,1.85
2023-06-16T13:02:25.641Z,1.85
2023-06-16T13:07:27.354Z,1.90
2023-06-16T13:12:28.956Z,1.98
2023-06-16T13:17:31.093Z,2.15
2023-06-16T13:22:32.716Z,2.08
2023-06-16T13:27:34.348Z,1.63
2023-06-16T13:32:36.219Z,1.80
2023-06-16T13:37:37.823Z,1.80
2023-06-16T13:42:39.477Z,1.80
2023-06-16T13:47:41.630Z,1.90
2023-06-16T13:52:43.302Z,2.00
2023-06-16T13:57:45.099Z,1.90
2023-06-16T14:02:47.318Z,1.85
2023-06-16T14:07:49.302Z,2.10
2023-06-16T14:12:51.065Z,1.90
2023-06-16T14:17:52.776Z,2.10
2023-06-16T14:22:54.464Z,2.10
2023-06-16T14:27:57.109Z,2.10
2023-06-16T14:32:58.854Z,2.35
2023-06-16T14:38:00.670Z,1.85
2023-06-16T14:43:02.938Z,1.98
2023-06-16T14:48:04.835Z,1.95
2023-06-16T14:53:06.744Z,2.22
2023-06-16T14:58:08.407Z,2.15
2023-06-16T15:03:10.781Z,2.22
2023-06-16T15:08:12.535Z,2.55
2023-06-16T15:13:16.157Z,1.90
2023-06-16T15:18:17.834Z,2.15
2023-06-16T15:23:20.227Z,2.60
2023-06-16T15:28:21.903Z,2.30
2023-06-16T15:33:23.513Z,2.13
2023-06-16T15:38:25.173Z,1.85
2023-06-16T15:43:26.765Z,2.40
2023-06-16T15:48:28.776Z,2.00
2023-06-16T15:53:30.621Z,1.90
2023-06-16T15:58:32.310Z,2.17
2023-06-16T16:03:34.052Z,2.30
2023-06-16T16:08:37.798Z,1.70
2023-06-16T16:13:39.497Z,2.85
2023-06-16T16:18:41.256Z,1.85
2023-06-16T16:23:42.861Z,2.42
2023-06-16T16:28:44.510Z,2.03
2023-06-16T16:33:47.086Z,2.50
2023-06-16T16:38:48.761Z,2.33
2023-06-16T16:43:50.529Z,2.08
2023-06-16T16:48:54.677Z,2.00
2023-06-16T16:53:57.830Z,2.53
2023-06-16T16:58:59.654Z,2.35
2023-06-16T17:04:01.658Z,2.25
2023-06-16T17:09:04.734Z,2.28
2023-06-16T17:14:06.518Z,2.25
2023-06-16T17:19:09.637Z,2.65
2023-06-16T17:24:11.403Z,2.25
2023-06-16T17:29:12.970Z,2.20
2023-06-16T17:34:14.825Z,2.25
2023-06-16T17:39:16.779Z,2.35
2023-06-16T17:44:19.546Z,2.88
2023-06-16T17:49:24.162Z,2.10
2023-06-16T17:54:25.842Z,2.30
2023-06-16T17:59:27.420Z,2.38
2023-06-16T18:04:29.138Z,2.50
2023-06-16T18:09:31.486Z,2.60
2023-06-16T18:14:33.093Z,2.20
2023-06-16T18:19:34.775Z,1.80
2023-06-16T18:24:36.472Z,2.05
2023-06-16T18:29:40.431Z,2.20
2023-06-16T18:34:42.941Z,2.10
2023-06-16T18:39:44.661Z,2.00
2023-06-16T18:44:47.150Z,2.00
2023-06-16T18:49:49.217Z,1.90
2023-06-16T18:54:51.270Z,1.90
2023-06-16T18:59:54.202Z,1.95
2023-06-16T19:04:56.100Z,2.55
2023-06-16T19:09:57.721Z,2.30
2023-06-16T19:14:59.424Z,2.40
2023-06-16T19:20:02.238Z,2.10
2023-06-16T19:25:04.095Z,2.03
2023-06-16T19:30:07.322Z,2.40
2023-06-16T19:35:09.292Z,1.73
2023-06-16T19:40:11.096Z,2.35
2023-06-16T19:45:12.821Z,3.08
2023-06-16T19:50:14.421Z,3.17
2023-06-16T19:55:16.030Z,11.77
2023-06-16T20:00:18.127Z,18.73
2023-06-16T20:05:22.907Z,11.48
2023-06-16T20:10:26.750Z,4.55
2023-06-16T20:15:28.560Z,2.60
2023-06-16T20:20:30.578Z,2.67
2023-06-16T20:25:32.302Z,2.47
2023-06-16T20:30:34.109Z,3.13
2023-06-16T20:35:36.905Z,2.50
2023-06-16T20:45:42.305Z,2.50
2023-06-16T20:50:45.272Z,2.22
2023-06-16T20:55:46.950Z,2.58
2023-06-16T21:00:48.783Z,2.85
2023-06-16T21:05:50.617Z,2.50
2023-06-16T21:10:52.284Z,2.75
2023-06-16T21:16:02.249Z,2.85
2023-06-16T21:21:04.024Z,2.33
2023-06-16T21:26:05.656Z,2.45
2023-06-16T21:31:07.409Z,2.17
2023-06-16T21:36:09.071Z,2.77
2023-06-16T21:41:11.157Z,2.80
2023-06-16T21:46:13.552Z,2.37
2023-06-16T21:51:15.178Z,2.70
2023-06-16T21:56:16.813Z,2.80
2023-06-16T22:01:18.498Z,2.90
2023-06-16T22:06:20.496Z,2.85
2023-06-16T22:11:24.401Z,2.70
2023-06-16T22:16:26.588Z,2.87
2023-06-16T22:21:28.663Z,2.83
2023-06-16T22:26:30.251Z,2.50
2023-06-16T22:31:31.910Z,2.70
2023-06-16T22:36:33.844Z,2.87
2023-06-16T22:41:35.586Z,3.03
2023-06-16T22:46:38.014Z,2.93
2023-06-16T22:51:39.839Z,2.80
2023-06-16T22:56:42.248Z,3.10
2023-06-16T23:01:44.115Z,2.50
2023-06-16T23:06:48.950Z,2.83
2023-06-16T23:11:50.596Z,2.43
2023-06-16T23:16:52.235Z,2.80
2023-06-16T23:21:54.714Z,2.53
2023-06-16T23:26:57.426Z,2.60
2023-06-16T23:31:59.399Z,3.07
2023-06-16T23:37:03.048Z,2.90
2023-06-16T23:42:07.412Z,2.70
2023-06-16T23:47:09.185Z,3.30
2023-06-16T23:52:10.995Z,2.90
2023-06-16T23:57:12.587Z,3.03
